createdAt,value
2023-10-16T00:00:42.672Z,100309.69
2023-10-16T00:03:31.419Z,100313.13
2023-10-16T00:06:52.894Z,100320.81
2023-10-16T00:09:32.656Z,100310.72
2023-10-16T00:12:11.041Z,100313.28
2023-10-16T00:15:06.965Z,100309.81
2023-10-16T00:18:14.984Z,100309.06
2023-10-16T00:21:43.911Z,100320.13
2023-10-16T00:24:41.986Z,100319.28
2023-10-16T00:27:16.265Z,100312.50
2023-10-16T00:31:01.567Z,100313.41
2023-10-16T00:33:57.475Z,100306.69
2023-10-16T00:36:37.990Z,100310.13
2023-10-16T00:39:22.125Z,100305.88
2023-10-16T00:42:12.521Z,100310.97
2023-10-16T00:44:57.675Z,100303.34
2023-10-16T00:48:00.176Z,100316.91
2023-10-16T00:50:43.917Z,100313.50
2023-10-16T00:53:25.335Z,100308.47
2023-10-16T00:56:09.679Z,100306.88
2023-10-16T00:58:56.874Z,100307.81
2023-10-16T01:01:58.229Z,100317.19
2023-10-16T01:04:52.471Z,100300.16
2023-10-16T01:07:26.764Z,100304.31
2023-10-16T01:10:12.309Z,100284.78
2023-10-16T01:13:00.658Z,100290.03
2023-10-16T01:16:02.834Z,100292.59
2023-10-16T01:19:36.018Z,100283.22
2023-10-16T01:22:37.206Z,100273.00
2023-10-16T01:25:19.427Z,100251.78
2023-10-16T01:28:08.514Z,100251.84
2023-10-16T01:30:44.439Z,100251.09
2023-10-16T01:33:20.871Z,100251.06
2023-10-16T01:36:04.913Z,100251.06
2023-10-16T01:38:37.942Z,100240.84
2023-10-16T01:42:05.028Z,100235.75
2023-10-16T01:44:51.425Z,100245.16
2023-10-16T01:47:50.028Z,100256.22
2023-10-16T01:50:56.941Z,100251.91
2023-10-16T01:53:53.164Z,100255.31
2023-10-16T01:56:39.011Z,100246.88
2023-10-16T01:59:36.825Z,100252.03
2023-10-16T02:02:15.324Z,100263.13
2023-10-16T02:05:12.192Z,100267.41
2023-10-16T02:08:02.407Z,100253.72
2023-10-16T02:10:51.659Z,100257.09
2023-10-16T02:13:42.010Z,100248.59
2023-10-16T02:16:24.191Z,100262.25
2023-10-16T02:19:17.988Z,100266.53
2023-10-16T02:22:18.458Z,100263.13
2023-10-16T02:24:56.786Z,100248.72
2023-10-16T02:27:55.211Z,100245.34
2023-10-16T02:31:12.057Z,100251.47
2023-10-16T02:34:13.814Z,100244.66
2023-10-16T02:37:21.351Z,100242.94
2023-10-16T02:40:01.829Z,100242.06
2023-10-16T02:43:02.498Z,100230.97
2023-10-16T02:45:48.740Z,100248.03
2023-10-16T02:48:36.455Z,100246.38
2023-10-16T02:51:45.248Z,100236.16
2023-10-16T02:54:51.411Z,100232.78
2023-10-16T02:57:32.386Z,100237.06
2023-10-16T03:00:21.600Z,100240.50
2023-10-16T03:03:20.306Z,100241.38
2023-10-16T03:06:37.486Z,100226.16
2023-10-16T03:09:34.883Z,100232.00
2023-10-16T03:12:11.133Z,100241.47
2023-10-16T03:15:20.257Z,100237.31
2023-10-16T03:17:55.071Z,100237.31
2023-10-16T03:20:46.346Z,100227.13
2023-10-16T03:23:42.140Z,100234.81
2023-10-16T03:26:47.598Z,100234.03
2023-10-16T03:29:28.223Z,100224.66
2023-10-16T03:32:26.903Z,100228.81
2023-10-16T03:35:45.638Z,100224.53
2023-10-16T03:38:30.161Z,100225.47
2023-10-16T03:41:29.359Z,100221.22
2023-10-16T03:44:49.622Z,100224.59
2023-10-16T03:47:55.638Z,100228.81
2023-10-16T03:50:54.616Z,100237.34
2023-10-16T03:53:42.210Z,100241.63
2023-10-16T03:56:22.778Z,100240.78
2023-10-16T03:58:55.646Z,100236.50
2023-10-16T04:01:57.896Z,100240.72
2023-10-16T04:04:41.372Z,100239.13
2023-10-16T04:07:25.706Z,100250.22
2023-10-16T04:10:25.613Z,100245.16
2023-10-16T04:13:25.431Z,100239.16
2023-10-16T04:16:21.597Z,100239.13
2023-10-16T04:19:32.027Z,100233.25
2023-10-16T04:22:18.234Z,100227.34
2023-10-16T04:25:08.146Z,100229.84
2023-10-16T04:28:31.265Z,100225.66
2023-10-16T04:31:37.589Z,100223.13
2023-10-16T04:34:40.656Z,100219.81
2023-10-16T04:37:37.838Z,100216.34
2023-10-16T04:40:32.398Z,100209.56
2023-10-16T04:43:38.954Z,100212.94
2023-10-16T04:46:25.086Z,100207.84
2023-10-16T04:49:00.168Z,100202.75
2023-10-16T04:52:09.126Z,100212.97
2023-10-16T04:55:04.108Z,100201.16
2023-10-16T04:58:16.402Z,100200.31
2023-10-16T05:01:34.740Z,100197.84
2023-10-16T05:05:00.857Z,100203.78
2023-10-16T05:07:50.393Z,100204.56
2023-10-16T05:10:41.920Z,100190.97
2023-10-16T05:13:55.395Z,100202.06
2023-10-16T05:16:37.465Z,100200.41
2023-10-16T05:19:47.666Z,100194.44
2023-10-16T05:22:45.115Z,100191.00
2023-10-16T05:25:44.261Z,100183.41
2023-10-16T05:28:43.463Z,100200.41
2023-10-16T05:31:43.360Z,100192.81
2023-10-16T05:34:55.385Z,100186.88
2023-10-16T05:37:58.281Z,100182.59
2023-10-16T05:40:53.808Z,100188.53
2023-10-16T05:43:45.227Z,100195.31
2023-10-16T05:46:37.563Z,100194.38
2023-10-16T05:49:29.841Z,100192.63
2023-10-16T05:52:25.885Z,100192.56
2023-10-16T05:55:36.898Z,100197.59
2023-10-16T05:59:13.226Z,100202.66
2023-10-16T06:02:05.323Z,100199.28
2023-10-16T06:04:57.441Z,100200.94
2023-10-16T06:07:49.357Z,100206.09
2023-10-16T06:10:42.015Z,100209.44
2023-10-16T06:13:30.922Z,100202.56
2023-10-16T06:16:20.610Z,100197.44
2023-10-16T06:19:16.441Z,100201.66
2023-10-16T06:21:54.604Z,100210.13
2023-10-16T06:24:30.422Z,100214.28
2023-10-16T06:30:20.606Z,100195.41
2023-10-16T06:32:54.717Z,100201.31
2023-10-16T06:35:28.036Z,100204.63
2023-10-16T06:38:02.512Z,100202.84
2023-10-16T06:40:47.576Z,100193.44
2023-10-16T06:43:30.460Z,100198.53
2023-10-16T06:46:23.451Z,100191.72
2023-10-16T06:48:59.115Z,100204.38
2023-10-16T06:51:47.863Z,100203.47
2023-10-16T06:54:20.566Z,100208.44
2023-10-16T06:57:14.052Z,100204.13
2023-10-16T07:00:01.611Z,100209.19
2023-10-16T07:02:52.610Z,100210.81
2023-10-16T07:05:45.820Z,100211.59
2023-10-16T07:08:27.287Z,100211.53
2023-10-16T07:11:05.587Z,100208.88
2023-10-16T07:13:50.405Z,100217.25
2023-10-16T07:16:24.500Z,100213.72
2023-10-16T07:18:59.209Z,100213.66
2023-10-16T07:21:42.440Z,100215.19
2023-10-16T07:24:14.437Z,100213.38
2023-10-16T07:27:01.453Z,100216.66
2023-10-16T07:29:37.295Z,100202.81
2023-10-16T07:32:15.508Z,100205.19
2023-10-16T07:34:57.115Z,100198.13
2023-10-16T07:37:42.123Z,100203.03
2023-10-16T07:40:33.938Z,100202.00
2023-10-16T07:43:13.279Z,100192.38
2023-10-16T07:45:54.099Z,100191.28
2023-10-16T07:48:29.711Z,100189.34
2023-10-16T07:51:02.978Z,100187.50
2023-10-16T07:53:42.520Z,100190.66
2023-10-16T07:56:31.391Z,100194.66
2023-10-16T07:59:12.336Z,100193.66
2023-10-16T08:01:50.598Z,100190.97
2023-10-16T08:09:49.555Z,100191.28
2023-10-16T08:12:21.921Z,100195.28
2023-10-16T08:15:10.430Z,100192.34
2023-10-16T08:18:05.123Z,100193.78
2023-10-16T08:24:02.636Z,100196.56
2023-10-16T08:26:43.632Z,100202.25
2023-10-16T08:29:28.961Z,100200.13
2023-10-16T08:32:17.077Z,100190.31
2023-10-16T08:35:16.821Z,100201.00
2023-10-16T08:37:58.691Z,100197.88
2023-10-16T08:40:47.308Z,100190.44
2023-10-16T08:43:41.729Z,100186.34
2023-10-16T08:46:25.789Z,100181.25
2023-10-16T08:49:03.554Z,100186.56
2023-10-16T08:51:54.468Z,100188.63
2023-10-16T08:55:16.513Z,100184.69
2023-10-16T08:58:44.300Z,100176.38
2023-10-16T09:01:21.499Z,100171.66
2023-10-16T09:04:07.400Z,100165.16
2023-10-16T09:07:06.138Z,100168.91
2023-10-16T09:10:14.048Z,100166.69
2023-10-16T09:13:27.421Z,100167.88
2023-10-16T09:16:25.077Z,100162.19
2023-10-16T09:19:19.723Z,100164.28
2023-10-16T09:21:55.182Z,100168.13
2023-10-16T09:24:40.595Z,100161.78
2023-10-16T09:27:26.816Z,100157.88
2023-10-16T09:30:16.061Z,100154.88
2023-10-16T09:32:59.330Z,100156.91
2023-10-16T09:36:01.664Z,100150.53
2023-10-16T09:38:58.910Z,100142.47
2023-10-16T09:41:51.039Z,100143.97
2023-10-16T09:44:42.603Z,100136.53
2023-10-16T09:47:50.216Z,100131.72
2023-10-16T09:50:32.822Z,100131.84
2023-10-16T09:53:31.363Z,100134.84
2023-10-16T09:56:24.837Z,100132.72
2023-10-16T09:59:18.989Z,100127.94
2023-10-16T10:02:11.028Z,100124.00
2023-10-16T10:05:18.364Z,100124.34
2023-10-16T10:08:02.922Z,100126.50
2023-10-16T10:11:29.623Z,100133.00
2023-10-16T10:14:31.255Z,100122.25
2023-10-16T10:17:18.276Z,100122.81
2023-10-16T10:20:01.869Z,100112.19
2023-10-16T10:22:48.499Z,100116.25
2023-10-16T10:25:40.011Z,100121.41
2023-10-16T10:28:33.750Z,100109.22
2023-10-16T10:31:17.404Z,100111.59
2023-10-16T10:34:16.654Z,100105.28
2023-10-16T10:37:35.357Z,100092.16
2023-10-16T10:40:38.649Z,100090.47
2023-10-16T10:44:26.827Z,100083.72
2023-10-16T10:47:06.710Z,100086.50
2023-10-16T10:49:41.228Z,100081.53
2023-10-16T10:52:39.683Z,100073.31
2023-10-16T10:55:23.320Z,100078.88
2023-10-16T10:58:13.804Z,100067.22
2023-10-16T11:01:20.794Z,100065.22
2023-10-16T11:03:57.120Z,100054.44
2023-10-16T11:06:50.568Z,100041.97
2023-10-16T11:09:31.701Z,100033.97
2023-10-16T11:12:27.332Z,100031.81
2023-10-16T11:15:21.008Z,100033.00
2023-10-16T11:18:20.491Z,100024.72
2023-10-16T11:21:38.801Z,100028.22
2023-10-16T11:24:26.623Z,100020.59
2023-10-16T11:26:59.982Z,100006.25
2023-10-16T11:29:55.439Z,100007.38
2023-10-16T11:32:53.242Z,100009.50
2023-10-16T11:36:16.492Z,100004.53
2023-10-16T11:39:03.029Z,99996.84
2023-10-16T11:41:49.892Z,99992.69
2023-10-16T11:44:55.639Z,99980.53
2023-10-16T11:48:12.803Z,99984.97
2023-10-16T11:50:52.436Z,99972.06
2023-10-16T11:54:12.073Z,99972.81
2023-10-16T11:56:48.651Z,99963.28
2023-10-16T11:59:27.707Z,99961.91
2023-10-16T12:02:26.949Z,99960.47
2023-10-16T12:05:19.835Z,99958.16
2023-10-16T12:07:54.203Z,99943.91
2023-10-16T12:10:37.423Z,99945.97
2023-10-16T12:13:17.489Z,99953.97
2023-10-16T12:15:51.489Z,99945.03
2023-10-16T12:18:34.122Z,99941.91
2023-10-16T12:21:15.958Z,99925.66
2023-10-16T12:23:53.579Z,99916.66
2023-10-16T12:26:31.500Z,99916.88
2023-10-16T12:29:13.485Z,99910.19
2023-10-16T12:31:49.766Z,99909.91
2023-10-16T12:34:32.708Z,99906.38
2023-10-16T12:40:22.610Z,99897.16
2023-10-16T12:42:57.148Z,99903.31
2023-10-16T12:45:31.024Z,99893.06
2023-10-16T12:48:05.378Z,99889.56
2023-10-16T12:50:36.575Z,99889.81
2023-10-16T12:53:26.777Z,99893.38
2023-10-16T12:56:19.481Z,99884.00
2023-10-16T12:59:07.576Z,99880.28
2023-10-16T13:01:55.888Z,99883.53
2023-10-16T13:04:30.574Z,99887.16
2023-10-16T13:07:03.903Z,99886.34
2023-10-16T13:09:41.779Z,99884.88
2023-10-16T13:12:18.556Z,99883.22
2023-10-16T13:14:58.814Z,99877.41
2023-10-16T13:17:31.347Z,99880.72
2023-10-16T13:20:14.356Z,99857.78
2023-10-16T13:22:51.312Z,99857.06
2023-10-16T13:25:33.157Z,99865.34
2023-10-16T13:28:06.038Z,99858.16
2023-10-16T13:30:39.032Z,99850.34
2023-10-16T13:33:21.672Z,99854.09
2023-10-16T13:36:17.021Z,99851.94
2023-10-16T13:38:50.532Z,99837.88
2023-10-16T13:41:21.805Z,99838.16
2023-10-16T13:44:05.486Z,99844.84
2023-10-16T13:46:48.339Z,99847.06
2023-10-16T13:49:29.584Z,99838.06
2023-10-16T13:52:01.957Z,99826.97
2023-10-16T13:54:53.113Z,99838.19
2023-10-16T13:57:51.222Z,99834.19
2023-10-16T14:00:38.098Z,99836.53
2023-10-16T14:03:44.336Z,99833.91
2023-10-16T14:06:27.205Z,99834.97
2023-10-16T14:09:20.997Z,99826.13
2023-10-16T14:11:55.852Z,99824.13
2023-10-16T14:14:34.858Z,99816.25
2023-10-16T14:17:25.844Z,99812.81
2023-10-16T14:20:31.262Z,99811.00
2023-10-16T14:23:16.416Z,99815.56
2023-10-16T14:26:01.825Z,99815.06
2023-10-16T14:28:51.617Z,99819.69
2023-10-16T14:31:40.855Z,99822.22
2023-10-16T14:34:28.683Z,99814.06
2023-10-16T14:37:11.979Z,99822.66
2023-10-16T14:40:16.994Z,99814.94
2023-10-16T14:43:25.023Z,99819.03
2023-10-16T14:46:27.536Z,99823.00
2023-10-16T14:49:10.140Z,99818.38
2023-10-16T14:52:04.532Z,99819.69
2023-10-16T14:54:50.465Z,99823.94
2023-10-16T14:57:25.886Z,99825.69
2023-10-16T15:00:23.976Z,99820.50
2023-10-16T15:02:54.815Z,99820.53
2023-10-16T15:05:37.061Z,99826.72
2023-10-16T15:08:20.461Z,99827.56
2023-10-16T15:11:03.182Z,99825.56
2023-10-16T15:13:37.612Z,99832.63
2023-10-16T15:16:24.757Z,99825.41
2023-10-16T15:19:09.607Z,99827.34
2023-10-16T15:22:12.629Z,99829.94
2023-10-16T15:24:48.341Z,99828.94
2023-10-16T15:27:38.863Z,99831.84
2023-10-16T15:30:21.771Z,99822.91
2023-10-16T15:33:17.901Z,99823.03
2023-10-16T15:36:14.402Z,99824.69
2023-10-16T15:39:21.375Z,99821.28
2023-10-16T15:42:05.537Z,99825.38
2023-10-16T15:44:52.292Z,99837.81
2023-10-16T15:47:43.502Z,99828.66
2023-10-16T15:50:29.186Z,99832.72
2023-10-16T15:53:11.941Z,99836.69
2023-10-16T15:55:53.569Z,99834.41
2023-10-16T15:58:54.543Z,99837.06
2023-10-16T16:01:54.903Z,99842.41
2023-10-16T16:04:45.197Z,99841.91
2023-10-16T16:07:23.230Z,99837.72
2023-10-16T16:10:36.633Z,99834.66
2023-10-16T16:13:37.638Z,99849.69
2023-10-16T16:16:27.089Z,99845.63
2023-10-16T16:19:35.921Z,99836.38
2023-10-16T16:22:33.377Z,99837.28
2023-10-16T16:25:21.301Z,99845.22
2023-10-16T16:28:28.764Z,99847.91
2023-10-16T16:31:17.902Z,99852.03
2023-10-16T16:34:00.673Z,99851.31
2023-10-16T16:37:10.788Z,99850.09
2023-10-16T16:40:29.149Z,99854.59
2023-10-16T16:43:20.380Z,99862.59
2023-10-16T16:46:14.817Z,99865.81
2023-10-16T16:49:23.829Z,99865.38
2023-10-16T16:51:55.068Z,99869.69
2023-10-16T16:54:41.428Z,99878.84
2023-10-16T16:57:58.459Z,99876.81
2023-10-16T17:00:46.487Z,99878.09
2023-10-16T17:03:17.788Z,99878.56
2023-10-16T17:05:50.147Z,99875.53
2023-10-16T17:08:29.344Z,99876.88
2023-10-16T17:11:28.600Z,99874.16
2023-10-16T17:14:32.562Z,99878.84
2023-10-16T17:17:47.340Z,99870.66
2023-10-16T17:20:47.593Z,99881.41
2023-10-16T17:24:07.534Z,99879.19
2023-10-16T17:26:53.732Z,99875.28
2023-10-16T17:29:48.131Z,99884.09
2023-10-16T17:32:43.838Z,99888.47
2023-10-16T17:35:22.041Z,99886.88
2023-10-16T17:38:15.457Z,99885.38
2023-10-16T17:41:13.787Z,99884.69
2023-10-16T17:44:01.389Z,99883.91
2023-10-16T17:46:48.472Z,99876.44
2023-10-16T17:49:55.120Z,99886.91
2023-10-16T17:52:56.171Z,99885.22
2023-10-16T17:56:00.239Z,99886.97
2023-10-16T17:58:45.813Z,99895.50
2023-10-16T18:01:30.519Z,99886.00
2023-10-16T18:04:30.531Z,99895.44
2023-10-16T18:07:08.437Z,99907.59
2023-10-16T18:10:14.732Z,99905.88
2023-10-16T18:13:02.284Z,99907.59
2023-10-16T18:16:06.944Z,99906.75
2023-10-16T18:18:55.111Z,99899.94
2023-10-16T18:21:32.559Z,99900.88
2023-10-16T18:24:26.368Z,99893.28
2023-10-16T18:27:10.094Z,99895.94
2023-10-16T18:29:53.271Z,99889.94
2023-10-16T18:32:40.388Z,99894.19
2023-10-16T18:35:30.258Z,99904.56
2023-10-16T18:38:12.987Z,99900.31
2023-10-16T18:41:18.875Z,99906.31
2023-10-16T18:44:00.081Z,99901.97
2023-10-16T18:46:41.744Z,99905.63
2023-10-16T18:49:59.360Z,99903.13
2023-10-16T18:52:52.092Z,99906.72
2023-10-16T18:55:59.662Z,99907.88
2023-10-16T18:58:41.906Z,99893.47
2023-10-16T19:01:22.393Z,99905.75
2023-10-16T19:04:10.823Z,99907.84
2023-10-16T19:06:59.249Z,99915.06
2023-10-16T19:10:10.011Z,99917.41
2023-10-16T19:12:52.280Z,99912.81
2023-10-16T19:15:37.601Z,99906.47
2023-10-16T19:18:52.644Z,99898.97
2023-10-16T19:21:50.751Z,99903.47
2023-10-16T19:24:35.857Z,99898.50
2023-10-16T19:28:02.216Z,99897.91
2023-10-16T19:30:48.402Z,99892.38
2023-10-16T19:33:41.441Z,99895.22
2023-10-16T19:36:54.707Z,99901.50
2023-10-16T19:39:32.434Z,99892.50
2023-10-16T19:42:05.343Z,99896.88
2023-10-16T19:44:55.159Z,99891.06
2023-10-16T19:47:53.812Z,99898.41
2023-10-16T19:50:45.548Z,99906.75
2023-10-16T19:53:51.077Z,99917.38
2023-10-16T19:56:43.732Z,99910.84
2023-10-16T19:59:30.024Z,99905.31
2023-10-16T20:02:17.391Z,99906.53
2023-10-16T20:05:31.990Z,99912.25
2023-10-16T20:08:47.103Z,99908.97
2023-10-16T20:11:22.614Z,99912.38
2023-10-16T20:14:20.619Z,99909.69
2023-10-16T20:16:56.889Z,99913.38
2023-10-16T20:20:27.672Z,99929.91
2023-10-16T20:23:16.765Z,99931.53
2023-10-16T20:25:54.826Z,99930.59
2023-10-16T20:28:51.699Z,99922.78
2023-10-16T20:32:01.676Z,99922.72
2023-10-16T20:34:49.021Z,99911.53
2023-10-16T20:37:51.379Z,99912.38
2023-10-16T20:40:42.070Z,99911.41
2023-10-16T20:43:28.587Z,99916.53
2023-10-16T20:46:33.983Z,99919.09
2023-10-16T20:49:05.261Z,99923.50
2023-10-16T20:52:02.409Z,99920.13
2023-10-16T20:55:28.903Z,99918.59
2023-10-16T20:58:01.020Z,99919.50
2023-10-16T21:00:47.383Z,99917.03
2023-10-16T21:03:29.163Z,99914.59
2023-10-16T21:06:16.183Z,99911.09
2023-10-16T21:08:50.772Z,99914.34
2023-10-16T21:11:43.240Z,99907.53
2023-10-16T21:14:37.927Z,99911.94
2023-10-16T21:17:36.527Z,99912.09
2023-10-16T21:20:33.845Z,99914.81
2023-10-16T21:23:22.807Z,99906.28
2023-10-16T21:26:13.981Z,99904.56
2023-10-16T21:29:00.096Z,99906.28
2023-10-16T21:32:02.279Z,99891.81
2023-10-16T21:34:44.246Z,99880.75
2023-10-16T21:37:18.034Z,99885.94
2023-10-16T21:39:58.914Z,99890.25
2023-10-16T21:42:50.928Z,99887.84
2023-10-16T21:46:06.630Z,99895.88
2023-10-16T21:49:04.025Z,99899.66
2023-10-16T21:52:05.911Z,99896.41
2023-10-16T21:55:19.955Z,99893.09
2023-10-16T21:58:06.713Z,99883.88
2023-10-16T22:00:52.480Z,99882.31
2023-10-16T22:03:40.090Z,99878.28
2023-10-16T22:06:53.126Z,99877.69
2023-10-16T22:09:42.936Z,99879.09
2023-10-16T22:12:44.490Z,99878.56
2023-10-16T22:15:24.598Z,99884.72
2023-10-16T22:18:12.168Z,99883.19
2023-10-16T22:21:21.709Z,99884.97
2023-10-16T22:24:04.286Z,99881.09
2023-10-16T22:27:20.543Z,99890.75
2023-10-16T22:30:26.116Z,99875.50
2023-10-16T22:33:09.308Z,99877.41
2023-10-16T22:35:53.108Z,99879.25
2023-10-16T22:38:35.527Z,99876.81
2023-10-16T22:41:09.189Z,99882.25
2023-10-16T22:43:51.696Z,99872.34
2023-10-16T22:46:33.476Z,99874.44
2023-10-16T22:49:19.080Z,99884.97
2023-10-16T22:52:15.842Z,99887.63
2023-10-16T22:55:15.605Z,99885.31
2023-10-16T22:58:14.209Z,99877.63
2023-10-16T23:01:03.512Z,99877.66
2023-10-16T23:03:45.118Z,99884.38
2023-10-16T23:06:25.056Z,99875.75
2023-10-16T23:09:21.636Z,99882.75
2023-10-16T23:12:20.409Z,99875.31
2023-10-16T23:15:21.845Z,99869.44
2023-10-16T23:18:18.843Z,99872.91
2023-10-16T23:21:24.442Z,99863.47
2023-10-16T23:24:34.215Z,99869.56
2023-10-16T23:27:42.234Z,99860.06
2023-10-16T23:30:47.858Z,99854.72
2023-10-16T23:33:42.542Z,99859.94
2023-10-16T23:36:30.389Z,99853.91
2023-10-16T23:39:39.059Z,99852.97
2023-10-16T23:42:46.670Z,99852.81
2023-10-16T23:45:50.844Z,99856.19
2023-10-16T23:48:32.900Z,99852.69
2023-10-16T23:51:46.925Z,99843.41
2023-10-16T23:54:41.810Z,99830.78
2023-10-16T23:57:23.021Z,99821.53
